createdAt,value
2022-11-25T00:01:45.693Z,8.48
2022-11-25T00:06:48.660Z,8.50
2022-11-25T00:11:53.093Z,8.52
2022-11-25T00:16:56.139Z,8.50
2022-11-25T00:21:59.160Z,8.49
2022-11-25T00:27:05.010Z,8.49
2022-11-25T00:32:10.782Z,8.52
2022-11-25T00:37:13.810Z,8.54
2022-11-25T00:42:35.921Z,8.55
2022-11-25T00:47:38.932Z,8.56
2022-11-25T00:52:41.986Z,8.59
2022-11-25T00:57:46.246Z,8.56
2022-11-25T01:02:49.555Z,8.57
2022-11-25T01:07:52.568Z,8.57
2022-11-25T01:12:57.804Z,8.56
2022-11-25T01:18:00.732Z,8.56
2022-11-25T01:23:03.668Z,8.57
2022-11-25T01:28:08.135Z,8.55
2022-11-25T01:33:11.072Z,8.58
2022-11-25T01:38:14.068Z,8.58
2022-11-25T01:43:18.514Z,8.59
2022-11-25T01:48:27.346Z,8.56
2022-11-25T01:53:30.454Z,8.56
2022-11-25T01:58:38.417Z,8.59
2022-11-25T02:03:44.510Z,8.56
2022-11-25T02:08:52.453Z,8.59
2022-11-25T02:13:57.965Z,8.57
2022-11-25T02:19:03.705Z,8.62
2022-11-25T02:24:13.693Z,8.64
2022-11-25T02:29:22.286Z,8.65
2022-11-25T02:34:25.364Z,8.67
2022-11-25T02:39:29.856Z,8.67
2022-11-25T02:44:35.138Z,8.64
2022-11-25T02:49:38.374Z,8.60
2022-11-25T02:54:41.906Z,8.58
2022-11-25T02:59:46.376Z,8.57
2022-11-25T03:04:50.348Z,8.55
2022-11-25T03:09:55.709Z,8.48
2022-11-25T03:15:00.198Z,8.47
2022-11-25T03:20:05.160Z,8.42
2022-11-25T03:25:09.175Z,8.40
2022-11-25T03:30:16.564Z,8.42
2022-11-25T03:35:21.727Z,8.42
2022-11-25T03:40:25.103Z,8.41
2022-11-25T03:45:29.777Z,8.36
2022-11-25T03:50:35.564Z,8.36
2022-11-25T03:55:38.683Z,8.30
2022-11-25T04:00:43.243Z,8.31
2022-11-25T04:05:46.256Z,8.26
2022-11-25T04:10:52.541Z,8.26
2022-11-25T04:16:01.141Z,8.29
2022-11-25T04:21:04.367Z,8.21
2022-11-25T04:26:07.769Z,8.13
2022-11-25T04:31:16.663Z,8.01
2022-11-25T04:36:20.619Z,7.93
2022-11-25T04:41:26.920Z,7.86
2022-11-25T04:46:38.176Z,7.77
2022-11-25T04:51:41.481Z,7.76
2022-11-25T04:56:44.513Z,7.71
2022-11-25T05:01:49.127Z,7.64
2022-11-25T05:07:14.850Z,7.55
2022-11-25T05:12:22.940Z,7.57
2022-11-25T05:17:29.863Z,7.60
2022-11-25T05:22:35.330Z,7.61
2022-11-25T05:27:40.069Z,7.65
2022-11-25T05:32:47.566Z,7.65
2022-11-25T05:37:51.186Z,7.66
2022-11-25T05:42:54.409Z,7.67
2022-11-25T05:47:59.411Z,7.67
2022-11-25T05:53:04.536Z,7.61
2022-11-25T05:58:09.227Z,7.58
2022-11-25T06:03:13.786Z,7.50
2022-11-25T06:08:18.260Z,7.44
2022-11-25T06:13:22.082Z,7.40
2022-11-25T06:18:29.277Z,7.33
2022-11-25T06:23:33.054Z,7.28
2022-11-25T06:28:37.368Z,7.23
2022-11-25T06:33:42.347Z,7.17
2022-11-25T06:38:47.356Z,7.12
2022-11-25T06:43:50.505Z,7.09
2022-11-25T06:48:55.948Z,7.05
2022-11-25T06:53:58.919Z,7.00
2022-11-25T06:59:02.680Z,6.96
2022-11-25T07:04:07.349Z,6.91
2022-11-25T07:09:10.304Z,6.87
2022-11-25T07:14:15.361Z,6.82
2022-11-25T07:19:20.605Z,6.79
2022-11-25T07:24:25.635Z,6.75
2022-11-25T07:29:54.195Z,6.73
2022-11-25T07:34:55.353Z,6.70
2022-11-25T07:39:58.396Z,6.70
2022-11-25T07:45:01.575Z,6.66
2022-11-25T07:50:18.298Z,6.66
2022-11-25T07:55:21.559Z,6.67
2022-11-25T08:00:27.149Z,6.69
2022-11-25T08:05:33.623Z,6.70
2022-11-25T08:10:36.642Z,6.70
2022-11-25T08:15:39.742Z,6.76
2022-11-25T08:20:44.428Z,6.79
2022-11-25T08:25:50.438Z,6.84
2022-11-25T08:30:56.526Z,6.88
2022-11-25T08:36:01.345Z,6.92
2022-11-25T08:41:05.076Z,6.96
2022-11-25T08:46:12.971Z,7.14
2022-11-25T08:51:20.906Z,7.34
2022-11-25T08:56:26.554Z,7.50
2022-11-25T09:01:30.196Z,7.69
2022-11-25T09:06:34.895Z,7.83
2022-11-25T09:11:38.070Z,7.97
2022-11-25T09:16:41.453Z,8.07
2022-11-25T09:21:45.903Z,8.27
2022-11-25T09:26:49.468Z,8.42
2022-11-25T09:31:55.031Z,8.59
2022-11-25T09:36:59.732Z,8.74
2022-11-25T09:42:36.724Z,8.90
2022-11-25T09:47:52.863Z,9.07
2022-11-25T09:53:12.678Z,9.25
2022-11-25T09:58:25.146Z,9.37
2022-11-25T10:03:36.126Z,9.54
2022-11-25T10:08:44.370Z,9.68
2022-11-25T10:13:57.592Z,9.76
2022-11-25T10:19:03.838Z,9.86
2022-11-25T10:24:14.602Z,9.98
2022-11-25T10:29:25.774Z,10.11
2022-11-25T10:34:37.508Z,10.22
2022-11-25T10:39:42.233Z,10.30
2022-11-25T10:44:45.581Z,10.36
2022-11-25T10:50:01.057Z,10.45
2022-11-25T10:55:12.947Z,10.43
2022-11-25T11:00:30.441Z,10.49
2022-11-25T11:05:33.838Z,10.59
2022-11-25T11:10:38.350Z,10.68
2022-11-25T11:15:47.530Z,10.72
2022-11-25T11:20:53.286Z,10.81
2022-11-25T11:26:01.494Z,10.91
2022-11-25T11:31:08.195Z,10.98
2022-11-25T11:36:32.196Z,11.08
2022-11-25T11:41:43.794Z,11.26
2022-11-25T11:47:08.359Z,11.32
2022-11-25T11:52:22.133Z,11.29
2022-11-25T11:57:46.120Z,11.33
2022-11-25T12:02:58.010Z,11.38
2022-11-25T12:08:08.055Z,11.54
2022-11-25T12:13:22.003Z,11.78
2022-11-25T12:18:40.154Z,12.27
2022-11-25T12:23:51.436Z,12.57
2022-11-25T12:29:00.877Z,12.66
2022-11-25T12:34:10.599Z,12.62
2022-11-25T12:39:23.100Z,12.50
2022-11-25T12:44:32.516Z,12.51
2022-11-25T12:49:43.172Z,12.46
2022-11-25T12:55:10.044Z,12.56
2022-11-25T13:06:11.013Z,12.51
2022-11-25T13:11:41.244Z,12.57
2022-11-25T13:16:48.380Z,12.58
2022-11-25T13:21:59.914Z,12.58
2022-11-25T13:27:05.297Z,12.57
2022-11-25T13:32:31.723Z,12.60
2022-11-25T13:37:40.125Z,12.62
2022-11-25T13:42:45.963Z,12.57
2022-11-25T13:47:50.784Z,12.72
2022-11-25T13:53:01.137Z,12.85
2022-11-25T13:58:19.509Z,12.97
2022-11-25T14:03:51.517Z,12.77
2022-11-25T14:08:58.811Z,13.12
2022-11-25T14:14:20.770Z,13.40
2022-11-25T14:19:52.054Z,13.29
2022-11-25T14:25:02.046Z,13.43
2022-11-25T14:30:07.352Z,13.65
2022-11-25T14:35:17.216Z,13.43
2022-11-25T14:40:26.886Z,13.20
2022-11-25T14:45:33.489Z,13.04
2022-11-25T14:50:39.396Z,12.88
2022-11-25T14:55:42.941Z,12.70
2022-11-25T15:00:55.697Z,12.53
2022-11-25T15:06:05.366Z,12.36
2022-11-25T15:11:14.810Z,12.14
2022-11-25T15:16:20.771Z,12.00
2022-11-25T15:21:30.407Z,11.73
2022-11-25T15:26:35.320Z,11.58
2022-11-25T15:31:39.359Z,11.34
2022-11-25T15:36:43.887Z,11.17
2022-11-25T15:41:49.342Z,11.02
2022-11-25T15:46:57.259Z,10.85
2022-11-25T15:52:08.661Z,10.72
2022-11-25T15:57:20.733Z,10.53
2022-11-25T16:02:33.376Z,10.36
2022-11-25T16:07:41.115Z,10.23
2022-11-25T16:12:44.208Z,10.08
2022-11-25T16:17:47.386Z,9.97
2022-11-25T16:22:51.810Z,9.85
2022-11-25T16:27:54.986Z,9.71
2022-11-25T16:32:58.177Z,9.62
2022-11-25T16:38:02.820Z,9.50
2022-11-25T16:43:08.217Z,9.38
2022-11-25T16:48:17.098Z,9.26
2022-11-25T16:53:21.533Z,9.14
2022-11-25T16:58:26.452Z,9.04
2022-11-25T17:03:29.746Z,8.97
2022-11-25T17:08:34.214Z,8.87
2022-11-25T17:13:41.286Z,8.78
2022-11-25T17:18:44.775Z,8.66
2022-11-25T17:23:53.822Z,8.60
2022-11-25T17:29:01.108Z,8.54
2022-11-25T17:34:04.112Z,8.46
2022-11-25T17:39:10.191Z,8.38
2022-11-25T17:44:24.208Z,8.33
2022-11-25T17:49:27.488Z,8.33
2022-11-25T17:54:31.819Z,8.29
2022-11-25T17:59:36.561Z,8.20
2022-11-25T18:04:39.800Z,8.17
2022-11-25T18:09:45.415Z,8.15
2022-11-25T18:14:48.611Z,8.12
2022-11-25T18:19:55.306Z,8.10
2022-11-25T18:25:02.227Z,8.05
2022-11-25T18:30:19.667Z,7.99
2022-11-25T18:35:27.046Z,7.89
2022-11-25T18:40:36.268Z,7.82
2022-11-25T18:45:40.447Z,7.75
2022-11-25T18:50:44.155Z,7.66
2022-11-25T18:55:49.906Z,7.62
2022-11-25T19:00:55.403Z,7.54
2022-11-25T19:06:01.030Z,7.49
2022-11-25T19:11:05.705Z,7.40
2022-11-25T19:16:13.948Z,7.36
2022-11-25T19:21:18.656Z,7.30
2022-11-25T19:26:30.108Z,7.25
2022-11-25T19:31:34.663Z,7.20
2022-11-25T19:36:37.851Z,7.13
2022-11-25T19:41:42.333Z,7.08
2022-11-25T19:47:14.271Z,7.02
2022-11-25T19:52:16.985Z,6.98
2022-11-25T19:57:25.913Z,6.94
2022-11-25T20:02:30.262Z,6.89
2022-11-25T20:07:33.574Z,6.85
2022-11-25T20:12:38.163Z,6.83
2022-11-25T20:17:43.433Z,6.76
2022-11-25T20:22:55.569Z,6.72
2022-11-25T20:28:02.890Z,6.67
2022-11-25T20:33:09.014Z,6.64
2022-11-25T20:38:17.020Z,6.61
2022-11-25T20:43:32.188Z,6.57
2022-11-25T20:48:38.150Z,6.54
2022-11-25T20:53:46.110Z,6.49
2022-11-25T20:58:50.845Z,6.43
2022-11-25T21:03:56.518Z,6.40
2022-11-25T21:09:02.424Z,6.34
2022-11-25T21:14:18.815Z,6.29
2022-11-25T21:19:22.164Z,6.26
2022-11-25T21:24:31.676Z,6.22
2022-11-25T21:29:36.569Z,6.17
2022-11-25T21:34:39.961Z,6.11
2022-11-25T21:39:43.695Z,6.10
2022-11-25T21:44:49.963Z,6.06
2022-11-25T21:49:54.832Z,6.02
2022-11-25T21:54:58.022Z,5.94
2022-11-25T22:00:03.993Z,5.93
2022-11-25T22:05:15.630Z,5.92
2022-11-25T22:10:19.216Z,5.90
2022-11-25T22:15:26.336Z,5.88
2022-11-25T22:20:30.687Z,5.83
2022-11-25T22:25:34.320Z,5.80
2022-11-25T22:30:38.541Z,5.77
2022-11-25T22:35:41.635Z,5.72
2022-11-25T22:40:45.933Z,5.69
2022-11-25T22:45:50.966Z,5.66
2022-11-25T22:50:54.096Z,5.66
2022-11-25T22:55:58.499Z,5.64
2022-11-25T23:01:02.983Z,5.62
2022-11-25T23:06:08.933Z,5.58
2022-11-25T23:11:17.338Z,5.58
2022-11-25T23:16:21.743Z,5.54
2022-11-25T23:21:29.182Z,5.49
2022-11-25T23:26:34.987Z,5.45
2022-11-25T23:31:41.135Z,5.45
2022-11-25T23:36:46.518Z,5.42
2022-11-25T23:41:49.943Z,5.37
2022-11-25T23:46:57.774Z,5.36
2022-11-25T23:52:07.742Z,5.35
2022-11-25T23:57:15.636Z,5.33
